sensor_id;sensor_type;location;lat;lon;timestamp;pressure;altitude;pressure_sealevel;temperature;humidity
35878;BME280;21982;49.804;24.072;2022-12-31T00:02:22;97700.00;;;5.38;77.97
35878;BME280;21982;49.804;24.072;2022-12-31T00:04:48;97736.03;;;5.46;77.75
35878;BME280;21982;49.804;24.072;2022-12-31T00:07:13;97726.25;;;5.38;77.68
35878;BME280;21982;49.804;24.072;2022-12-31T00:09:38;97726.84;;;5.32;77.88
35878;BME280;21982;49.804;24.072;2022-12-31T00:12:04;97638.50;;;4.77;77.92
35878;BME280;21982;49.804;24.072;2022-12-31T00:14:29;97690.63;;;4.99;78.18
35878;BME280;21982;49.804;24.072;2022-12-31T00:16:55;97713.81;;;5.03;78.32
35878;BME280;21982;49.804;24.072;2022-12-31T00:19:20;97722.94;;;5.09;78.38
35878;BME280;21982;49.804;24.072;2022-12-31T00:21:46;97685.31;;;4.81;78.18
35878;BME280;21982;49.804;24.072;2022-12-31T00:24:11;97721.84;;;5.02;78.23
35878;BME280;21982;49.804;24.072;2022-12-31T00:26:37;97647.81;;;4.52;78.28
35878;BME280;21982;49.804;24.072;2022-12-31T00:29:03;97703.41;;;4.84;78.39
35878;BME280;21982;49.804;24.072;2022-12-31T00:31:31;97722.41;;;4.96;78.46
35878;BME280;21982;49.804;24.072;2022-12-31T00:33:58;97719.78;;;4.86;78.33
35878;BME280;21982;49.804;24.072;2022-12-31T00:36:26;97677.19;;;4.65;78.00
35878;BME280;21982;49.804;24.072;2022-12-31T00:38:53;97697.91;;;4.68;78.17
35878;BME280;21982;49.804;24.072;2022-12-31T00:41:20;97718.59;;;4.81;78.04
35878;BME280;21982;49.804;24.072;2022-12-31T00:43:47;97685.47;;;4.60;78.59
35878;BME280;21982;49.804;24.072;2022-12-31T00:46:13;97665.19;;;4.53;78.20
35878;BME280;21982;49.804;24.072;2022-12-31T00:48:39;97695.41;;;4.76;78.52
35878;BME280;21982;49.804;24.072;2022-12-31T00:51:06;97608.28;;;4.26;78.22
35878;BME280;21982;49.804;24.072;2022-12-31T00:53:32;97665.75;;;4.56;78.28
35878;BME280;21982;49.804;24.072;2022-12-31T00:56:04;97664.50;;;4.60;78.03
35878;BME280;21982;49.804;24.072;2022-12-31T00:58:30;97678.72;;;4.67;78.68
35878;BME280;21982;49.804;24.072;2022-12-31T01:00:56;97552.47;;;3.87;78.23
35878;BME280;21982;49.804;24.072;2022-12-31T01:03:22;97597.28;;;4.13;78.32
35878;BME280;21982;49.804;24.072;2022-12-31T01:05:47;97634.22;;;4.29;78.62
35878;BME280;21982;49.804;24.072;2022-12-31T01:08:14;97681.88;;;4.61;78.57
35878;BME280;21982;49.804;24.072;2022-12-31T01:10:40;97583.50;;;4.01;78.62
35878;BME280;21982;49.804;24.072;2022-12-31T01:13:24;97668.09;;;4.59;78.81
35878;BME280;21982;49.804;24.072;2022-12-31T01:15:49;97624.13;;;4.34;78.58
35878;BME280;21982;49.804;24.072;2022-12-31T01:18:14;97668.78;;;4.61;78.62
35878;BME280;21982;49.804;24.072;2022-12-31T01:20:42;97671.25;;;4.63;78.65
35878;BME280;21982;49.804;24.072;2022-12-31T01:23:09;97649.78;;;4.40;78.84
35878;BME280;21982;49.804;24.072;2022-12-31T01:25:36;97522.19;;;3.55;78.67
35878;BME280;21982;49.804;24.072;2022-12-31T01:30:31;97680.25;;;4.51;78.71
35878;BME280;21982;49.804;24.072;2022-12-31T01:32:57;97672.25;;;4.52;78.72
35878;BME280;21982;49.804;24.072;2022-12-31T01:35:24;97675.56;;;4.54;78.69
35878;BME280;21982;49.804;24.072;2022-12-31T01:37:49;97673.91;;;4.53;78.87
35878;BME280;21982;49.804;24.072;2022-12-31T01:40:15;97677.50;;;4.52;78.87
35878;BME280;21982;49.804;24.072;2022-12-31T01:42:40;97642.06;;;4.29;79.10
35878;BME280;21982;49.804;24.072;2022-12-31T01:45:11;97676.53;;;4.53;78.65
35878;BME280;21982;49.804;24.072;2022-12-31T01:47:41;97673.06;;;4.53;78.84
35878;BME280;21982;49.804;24.072;2022-12-31T01:50:15;97661.25;;;4.39;78.68
35878;BME280;21982;49.804;24.072;2022-12-31T01:52:49;97676.97;;;4.49;78.45
35878;BME280;21982;49.804;24.072;2022-12-31T01:55:32;97570.84;;;3.77;78.54
35878;BME280;21982;49.804;24.072;2022-12-31T01:58:09;97682.34;;;4.47;78.61
35878;BME280;21982;49.804;24.072;2022-12-31T02:00:35;97627.06;;;4.12;79.19
35878;BME280;21982;49.804;24.072;2022-12-31T02:03:02;97597.56;;;4.00;78.91
35878;BME280;21982;49.804;24.072;2022-12-31T02:08:00;97660.13;;;4.42;79.19
35878;BME280;21982;49.804;24.072;2022-12-31T02:10:26;97677.50;;;4.52;78.88
35878;BME280;21982;49.804;24.072;2022-12-31T02:12:51;97567.09;;;3.89;78.98
35878;BME280;21982;49.804;24.072;2022-12-31T02:15:20;97645.22;;;4.42;78.95
35878;BME280;21982;49.804;24.072;2022-12-31T02:18:02;97592.53;;;4.26;78.67
35878;BME280;21982;49.804;24.072;2022-12-31T02:21:14;97601.91;;;4.38;78.73
35878;BME280;21982;49.804;24.072;2022-12-31T02:24:20;97626.81;;;4.61;78.58
35878;BME280;21982;49.804;24.072;2022-12-31T02:27:04;97604.47;;;4.57;78.78
35878;BME280;21982;49.804;24.072;2022-12-31T02:32:19;97649.72;;;5.06;78.88
35878;BME280;21982;49.804;24.072;2022-12-31T02:34:52;97659.06;;;5.18;78.96
35878;BME280;21982;49.804;24.072;2022-12-31T02:37:24;97656.81;;;5.23;79.19
35878;BME280;21982;49.804;24.072;2022-12-31T02:39:51;97572.81;;;4.68;78.84
35878;BME280;21982;49.804;24.072;2022-12-31T02:42:17;97656.28;;;5.20;78.65
35878;BME280;21982;49.804;24.072;2022-12-31T02:44:42;97672.91;;;5.11;78.38
35878;BME280;21982;49.804;24.072;2022-12-31T02:55:08;97674.03;;;5.08;78.51
35878;BME280;21982;49.804;24.072;2022-12-31T03:00:27;97567.72;;;4.30;78.41
35878;BME280;21982;49.804;24.072;2022-12-31T03:03:13;97676.97;;;4.95;79.09
35878;BME280;21982;49.804;24.072;2022-12-31T03:05:43;97651.53;;;4.96;78.41
35878;BME280;21982;49.804;24.072;2022-12-31T03:08:10;97638.03;;;4.91;78.52
35878;BME280;21982;49.804;24.072;2022-12-31T03:10:36;97641.03;;;4.96;78.57
35878;BME280;21982;49.804;24.072;2022-12-31T03:13:01;97683.19;;;5.22;78.31
35878;BME280;21982;49.804;24.072;2022-12-31T03:15:31;97687.34;;;5.24;78.15
35878;BME280;21982;49.804;24.072;2022-12-31T03:20:39;97703.09;;;5.24;77.92
35878;BME280;21982;49.804;24.072;2022-12-31T03:25:51;97685.16;;;5.20;78.32
35878;BME280;21982;49.804;24.072;2022-12-31T03:28:18;97547.00;;;4.36;78.12
35878;BME280;21982;49.804;24.072;2022-12-31T03:30:47;97680.34;;;5.15;78.03
35878;BME280;21982;49.804;24.072;2022-12-31T03:33:13;97627.19;;;4.76;78.09
35878;BME280;21982;49.804;24.072;2022-12-31T03:35:39;97683.66;;;5.17;78.10
35878;BME280;21982;49.804;24.072;2022-12-31T03:38:05;97607.19;;;4.75;77.99
35878;BME280;21982;49.804;24.072;2022-12-31T03:40:32;97660.53;;;5.21;78.26
35878;BME280;21982;49.804;24.072;2022-12-31T03:42:59;97624.16;;;5.08;78.07
35878;BME280;21982;49.804;24.072;2022-12-31T03:45:24;97613.25;;;5.03;78.18
35878;BME280;21982;49.804;24.072;2022-12-31T03:47:50;97674.91;;;5.54;77.97
35878;BME280;21982;49.804;24.072;2022-12-31T03:50:17;97662.38;;;5.65;77.91
35878;BME280;21982;49.804;24.072;2022-12-31T03:52:43;97592.00;;;5.24;77.52
35878;BME280;21982;49.804;24.072;2022-12-31T03:55:09;97651.41;;;5.70;77.30
35878;BME280;21982;49.804;24.072;2022-12-31T03:57:35;97655.31;;;5.66;77.42
35878;BME280;21982;49.804;24.072;2022-12-31T04:00:02;97635.56;;;5.62;77.14
35878;BME280;21982;49.804;24.072;2022-12-31T04:02:29;97605.75;;;5.35;77.27
35878;BME280;21982;49.804;24.072;2022-12-31T04:04:54;97627.91;;;5.51;77.20
35878;BME280;21982;49.804;24.072;2022-12-31T04:07:20;97638.03;;;5.46;77.00
35878;BME280;21982;49.804;24.072;2022-12-31T04:09:45;97539.56;;;4.87;77.22
35878;BME280;21982;49.804;24.072;2022-12-31T04:12:11;97588.63;;;5.14;77.14
35878;BME280;21982;49.804;24.072;2022-12-31T04:14:36;97581.19;;;5.09;76.99
35878;BME280;21982;49.804;24.072;2022-12-31T04:17:01;97589.31;;;5.16;77.25
35878;BME280;21982;49.804;24.072;2022-12-31T04:19:27;97641.19;;;5.49;77.06
35878;BME280;21982;49.804;24.072;2022-12-31T04:24:27;97578.94;;;5.14;76.77
35878;BME280;21982;49.804;24.072;2022-12-31T04:26:53;97626.81;;;5.53;77.01
35878;BME280;21982;49.804;24.072;2022-12-31T04:29:18;97601.19;;;5.37;76.71
35878;BME280;21982;49.804;24.072;2022-12-31T04:31:43;97570.31;;;5.22;76.98
35878;BME280;21982;49.804;24.072;2022-12-31T04:34:09;97624.63;;;5.49;76.58
35878;BME280;21982;49.804;24.072;2022-12-31T04:36:34;97625.50;;;5.39;76.44
35878;BME280;21982;49.804;24.072;2022-12-31T04:39:00;97529.00;;;4.79;76.59
35878;BME280;21982;49.804;24.072;2022-12-31T04:41:25;97512.41;;;4.51;76.61
35878;BME280;21982;49.804;24.072;2022-12-31T04:43:56;97612.38;;;5.12;76.38
35878;BME280;21982;49.804;24.072;2022-12-31T04:46:28;97588.59;;;4.86;76.19
35878;BME280;21982;49.804;24.072;2022-12-31T04:48:54;97611.09;;;4.89;76.88
35878;BME280;21982;49.804;24.072;2022-12-31T04:51:20;97611.09;;;4.89;77.30
35878;BME280;21982;49.804;24.072;2022-12-31T04:53:46;97537.53;;;4.53;77.22
35878;BME280;21982;49.804;24.072;2022-12-31T04:56:12;97606.75;;;5.07;77.17
35878;BME280;21982;49.804;24.072;2022-12-31T04:58:38;97525.88;;;4.65;77.13
35878;BME280;21982;49.804;24.072;2022-12-31T05:01:04;97483.97;;;4.56;76.95
35878;BME280;21982;49.804;24.072;2022-12-31T05:03:31;97615.75;;;5.50;76.99
35878;BME280;21982;49.804;24.072;2022-12-31T05:06:00;97611.53;;;5.57;76.42
35878;BME280;21982;49.804;24.072;2022-12-31T05:08:27;97595.47;;;5.60;76.29
35878;BME280;21982;49.804;24.072;2022-12-31T05:10:52;97625.09;;;5.80;76.36
35878;BME280;21982;49.804;24.072;2022-12-31T05:13:18;97555.56;;;5.56;76.17
35878;BME280;21982;49.804;24.072;2022-12-31T05:15:45;97617.59;;;6.02;76.26
35878;BME280;21982;49.804;24.072;2022-12-31T05:18:11;97611.13;;;6.15;75.78
35878;BME280;21982;49.804;24.072;2022-12-31T05:20:36;97572.22;;;6.00;75.39
35878;BME280;21982;49.804;24.072;2022-12-31T05:23:02;97465.38;;;5.48;75.25
35878;BME280;21982;49.804;24.072;2022-12-31T05:25:27;97586.88;;;6.29;75.35
35878;BME280;21982;49.804;24.072;2022-12-31T05:27:52;97574.19;;;6.24;75.00
35878;BME280;21982;49.804;24.072;2022-12-31T05:30:18;97560.19;;;6.16;74.91
35878;BME280;21982;49.804;24.072;2022-12-31T05:32:45;97618.25;;;6.48;74.69
35878;BME280;21982;49.804;24.072;2022-12-31T05:35:10;97439.72;;;5.42;74.49
35878;BME280;21982;49.804;24.072;2022-12-31T05:37:36;97481.25;;;5.64;74.28
35878;BME280;21982;49.804;24.072;2022-12-31T05:40:01;97556.50;;;6.09;74.43
35878;BME280;21982;49.804;24.072;2022-12-31T05:42:26;97534.91;;;5.97;74.56
35878;BME280;21982;49.804;24.072;2022-12-31T05:44:52;97613.00;;;6.48;73.87
35878;BME280;21982;49.804;24.072;2022-12-31T05:47:17;97507.72;;;5.88;74.09
35878;BME280;21982;49.804;24.072;2022-12-31T05:49:43;97590.44;;;6.46;74.02
35878;BME280;21982;49.804;24.072;2022-12-31T05:52:08;97595.78;;;6.54;73.72
35878;BME280;21982;49.804;24.072;2022-12-31T05:54:33;97598.94;;;6.65;73.62
35878;BME280;21982;49.804;24.072;2022-12-31T05:57:00;97607.19;;;6.70;73.93
35878;BME280;21982;49.804;24.072;2022-12-31T05:59:25;97596.34;;;6.73;73.23
35878;BME280;21982;49.804;24.072;2022-12-31T06:01:51;97494.19;;;6.01;73.14
35878;BME280;21982;49.804;24.072;2022-12-31T06:04:16;97591.03;;;6.65;73.24
35878;BME280;21982;49.804;24.072;2022-12-31T06:06:42;97579.38;;;6.68;72.67
35878;BME280;21982;49.804;24.072;2022-12-31T06:09:07;97522.47;;;6.33;73.02
35878;BME280;21982;49.804;24.072;2022-12-31T06:11:33;97552.66;;;6.47;72.75
35878;BME280;21982;49.804;24.072;2022-12-31T06:13:58;97597.91;;;6.84;72.90
35878;BME280;21982;49.804;24.072;2022-12-31T06:16:24;97587.16;;;6.78;72.76
35878;BME280;21982;49.804;24.072;2022-12-31T06:18:50;97617.50;;;6.90;72.17
35878;BME280;21982;49.804;24.072;2022-12-31T06:21:16;97599.03;;;6.82;72.63
35878;BME280;21982;49.804;24.072;2022-12-31T06:23:42;97577.59;;;6.68;72.45
35878;BME280;21982;49.804;24.072;2022-12-31T06:26:08;97565.72;;;6.64;72.59
35878;BME280;21982;49.804;24.072;2022-12-31T06:28:34;97615.91;;;7.05;71.81
35878;BME280;21982;49.804;24.072;2022-12-31T06:31:00;97618.28;;;7.16;72.25
35878;BME280;21982;49.804;24.072;2022-12-31T06:33:26;97558.63;;;6.91;71.95
35878;BME280;21982;49.804;24.072;2022-12-31T06:35:58;97608.44;;;7.26;71.79
35878;BME280;21982;49.804;24.072;2022-12-31T06:38:25;97632.34;;;7.41;71.36
35878;BME280;21982;49.804;24.072;2022-12-31T06:40:50;97631.06;;;7.53;71.31
35878;BME280;21982;49.804;24.072;2022-12-31T06:43:16;97620.03;;;7.50;71.52
35878;BME280;21982;49.804;24.072;2022-12-31T06:45:41;97591.84;;;7.42;70.77
35878;BME280;21982;49.804;24.072;2022-12-31T06:48:07;97595.34;;;7.51;70.72
35878;BME280;21982;49.804;24.072;2022-12-31T06:50:32;97632.59;;;7.80;71.00
35878;BME280;21982;49.804;24.072;2022-12-31T06:52:57;97515.88;;;7.05;70.85
35878;BME280;21982;49.804;24.072;2022-12-31T06:55:23;97653.75;;;7.96;70.89
35878;BME280;21982;49.804;24.072;2022-12-31T06:57:49;97601.63;;;7.74;69.95
35878;BME280;21982;49.804;24.072;2022-12-31T07:00:15;97606.88;;;7.74;70.31
35878;BME280;21982;49.804;24.072;2022-12-31T07:03:00;97657.22;;;8.21;70.16
35878;BME280;21982;49.804;24.072;2022-12-31T07:19:43;97675.53;;;8.63;68.34
35878;BME280;21982;49.804;24.072;2022-12-31T07:22:14;97660.66;;;8.70;68.46
35878;BME280;21982;49.804;24.072;2022-12-31T07:24:41;97675.84;;;8.77;68.74
35878;BME280;21982;49.804;24.072;2022-12-31T07:30:13;97666.41;;;8.90;67.77
35878;BME280;21982;49.804;24.072;2022-12-31T07:41:11;97663.28;;;8.95;67.80
35878;BME280;21982;49.804;24.072;2022-12-31T07:44:10;97661.47;;;8.95;67.65
35878;BME280;21982;49.804;24.072;2022-12-31T07:49:22;97596.84;;;8.59;68.15
35878;BME280;21982;49.804;24.072;2022-12-31T07:51:54;97606.19;;;8.78;67.51
35878;BME280;21982;49.804;24.072;2022-12-31T07:54:21;97600.91;;;8.86;67.55
35878;BME280;21982;49.804;24.072;2022-12-31T07:56:48;97684.22;;;9.44;67.15
35878;BME280;21982;49.804;24.072;2022-12-31T08:02:17;97466.41;;;8.37;66.74
35878;BME280;21982;49.804;24.072;2022-12-31T08:07:47;97661.28;;;9.75;66.29
35878;BME280;21982;49.804;24.072;2022-12-31T08:13:10;97638.41;;;9.59;66.70
35878;BME280;21982;49.804;24.072;2022-12-31T08:15:37;97647.72;;;9.78;66.17
35878;BME280;21982;49.804;24.072;2022-12-31T08:18:09;97633.34;;;9.72;66.50
35878;BME280;21982;49.804;24.072;2022-12-31T08:28:59;97653.50;;;10.04;65.80
35878;BME280;21982;49.804;24.072;2022-12-31T08:34:12;97602.34;;;9.89;65.86
35878;BME280;21982;49.804;24.072;2022-12-31T08:36:54;97645.47;;;10.21;65.64
35878;BME280;21982;49.804;24.072;2022-12-31T08:39:37;97655.00;;;10.30;66.10
35878;BME280;21982;49.804;24.072;2022-12-31T08:44:48;97660.59;;;10.35;66.26
35878;BME280;21982;49.804;24.072;2022-12-31T08:49:59;97671.00;;;10.36;65.79
35878;BME280;21982;49.804;24.072;2022-12-31T08:54:59;97421.00;;;8.89;65.83
35878;BME280;21982;49.804;24.072;2022-12-31T08:57:36;97679.25;;;10.56;65.59
35878;BME280;21982;49.804;24.072;2022-12-31T09:00:12;97688.22;;;10.55;65.75
35878;BME280;21982;49.804;24.072;2022-12-31T09:08:13;97694.56;;;10.46;65.79
35878;BME280;21982;49.804;24.072;2022-12-31T09:19:23;97705.63;;;10.72;66.42
35878;BME280;21982;49.804;24.072;2022-12-31T09:21:49;97698.97;;;10.91;65.46
35878;BME280;21982;49.804;24.072;2022-12-31T09:24:15;97623.91;;;10.47;65.24
35878;BME280;21982;49.804;24.072;2022-12-31T09:32:20;97692.31;;;10.95;65.22
35878;BME280;21982;49.804;24.072;2022-12-31T09:37:35;97686.41;;;11.08;65.13
35878;BME280;21982;49.804;24.072;2022-12-31T09:50:39;97667.28;;;10.98;65.28
35878;BME280;21982;49.804;24.072;2022-12-31T09:55:55;97662.81;;;11.13;65.07
35878;BME280;21982;49.804;24.072;2022-12-31T10:15:29;97616.47;;;11.24;64.86
35878;BME280;21982;49.804;24.072;2022-12-31T10:18:27;97617.09;;;11.26;65.11
35878;BME280;21982;49.804;24.072;2022-12-31T10:21:01;97610.34;;;11.23;65.56
35878;BME280;21982;49.804;24.072;2022-12-31T10:29:56;97596.34;;;11.15;65.35
35878;BME280;21982;49.804;24.072;2022-12-31T10:46:30;97601.97;;;11.56;65.57
35878;BME280;21982;49.804;24.072;2022-12-31T10:49:18;97614.88;;;13.00;63.99
35878;BME280;21982;49.804;24.072;2022-12-31T11:00:09;97542.59;;;14.58;58.42
35878;BME280;21982;49.804;24.072;2022-12-31T11:13:58;97596.28;;;14.35;58.71
35878;BME280;21982;49.804;24.072;2022-12-31T11:22:19;97592.69;;;13.14;60.08
35878;BME280;21982;49.804;24.072;2022-12-31T11:25:29;97563.38;;;12.66;60.84
35878;BME280;21982;49.804;24.072;2022-12-31T11:31:19;97598.34;;;12.70;60.99
35878;BME280;21982;49.804;24.072;2022-12-31T11:36:32;97610.81;;;12.69;61.41
35878;BME280;21982;49.804;24.072;2022-12-31T11:41:59;97553.66;;;12.52;61.38
35878;BME280;21982;49.804;24.072;2022-12-31T11:44:43;97636.38;;;12.70;61.36
35878;BME280;21982;49.804;24.072;2022-12-31T11:47:24;97564.91;;;12.54;61.49
35878;BME280;21982;49.804;24.072;2022-12-31T11:50:24;97542.78;;;12.40;61.14
35878;BME280;21982;49.804;24.072;2022-12-31T11:53:04;97581.44;;;12.78;61.23
35878;BME280;21982;49.804;24.072;2022-12-31T11:58:19;97590.63;;;12.75;61.35
35878;BME280;21982;49.804;24.072;2022-12-31T12:01:03;97599.66;;;12.81;60.99
35878;BME280;21982;49.804;24.072;2022-12-31T12:03:31;97565.28;;;12.51;60.70
35878;BME280;21982;49.804;24.072;2022-12-31T12:05:57;97580.97;;;12.67;60.99
35878;BME280;21982;49.804;24.072;2022-12-31T12:08:24;97576.28;;;12.69;61.14
35878;BME280;21982;49.804;24.072;2022-12-31T12:11:05;97540.00;;;12.55;60.57
35878;BME280;21982;49.804;24.072;2022-12-31T12:13:32;97584.31;;;12.83;60.64
35878;BME280;21982;49.804;24.072;2022-12-31T12:16:00;97565.56;;;12.91;60.60
35878;BME280;21982;49.804;24.072;2022-12-31T12:18:45;97539.50;;;13.14;59.77
35878;BME280;21982;49.804;24.072;2022-12-31T12:21:20;97594.53;;;13.61;60.01
35878;BME280;21982;49.804;24.072;2022-12-31T12:24:13;97563.41;;;13.49;59.41
35878;BME280;21982;49.804;24.072;2022-12-31T12:26:44;97572.06;;;13.77;59.73
35878;BME280;21982;49.804;24.072;2022-12-31T12:34:33;97540.88;;;13.58;59.27
35878;BME280;21982;49.804;24.072;2022-12-31T12:37:00;97581.84;;;13.63;59.78
35878;BME280;21982;49.804;24.072;2022-12-31T12:39:30;97539.00;;;13.38;59.84
35878;BME280;21982;49.804;24.072;2022-12-31T12:42:12;97538.66;;;13.07;60.07
35878;BME280;21982;49.804;24.072;2022-12-31T12:44:38;97558.38;;;13.26;60.36
35878;BME280;21982;49.804;24.072;2022-12-31T12:47:07;97569.06;;;13.32;60.23
35878;BME280;21982;49.804;24.072;2022-12-31T12:49:43;97551.56;;;13.10;60.32
35878;BME280;21982;49.804;24.072;2022-12-31T12:52:36;97548.44;;;13.00;60.71
35878;BME280;21982;49.804;24.072;2022-12-31T12:55:21;97559.47;;;12.97;60.50
35878;BME280;21982;49.804;24.072;2022-12-31T13:19:57;97564.00;;;13.03;59.95
35878;BME280;21982;49.804;24.072;2022-12-31T13:22:45;97580.19;;;13.08;59.76
35878;BME280;21982;49.804;24.072;2022-12-31T13:27:55;97584.13;;;13.73;58.91
35878;BME280;21982;49.804;24.072;2022-12-31T13:33:02;97531.06;;;13.58;57.97
35878;BME280;21982;49.804;24.072;2022-12-31T13:38:05;97511.75;;;13.17;57.84
35878;BME280;21982;49.804;24.072;2022-12-31T13:41:08;97591.28;;;13.66;58.08
35878;BME280;21982;49.804;24.072;2022-12-31T13:43:52;97600.91;;;13.67;58.39
35878;BME280;21982;49.804;24.072;2022-12-31T13:46:43;97598.22;;;13.60;58.21
35878;BME280;21982;49.804;24.072;2022-12-31T13:49:27;97599.00;;;13.48;58.65
35878;BME280;21982;49.804;24.072;2022-12-31T14:00:05;97634.38;;;13.07;59.34
35878;BME280;21982;49.804;24.072;2022-12-31T14:05:11;97591.38;;;12.69;59.86
35878;BME280;21982;49.804;24.072;2022-12-31T14:08:03;97625.22;;;12.88;59.66
35878;BME280;21982;49.804;24.072;2022-12-31T14:11:07;97637.00;;;12.72;60.09
35878;BME280;21982;49.804;24.072;2022-12-31T14:21:40;97636.00;;;12.52;60.92
35878;BME280;21982;49.804;24.072;2022-12-31T14:27:02;97593.19;;;12.13;61.19
35878;BME280;21982;49.804;24.072;2022-12-31T14:29:33;97642.38;;;12.30;61.18
35878;BME280;21982;49.804;24.072;2022-12-31T14:43:59;97621.81;;;12.17;61.46
35878;BME280;21982;49.804;24.072;2022-12-31T14:49:37;97625.06;;;12.13;61.98
35878;BME280;21982;49.804;24.072;2022-12-31T14:52:15;97623.41;;;12.12;62.15
35878;BME280;21982;49.804;24.072;2022-12-31T14:54:41;97613.84;;;11.96;62.15
35878;BME280;21982;49.804;24.072;2022-12-31T14:57:10;97638.44;;;12.04;62.26
35878;BME280;21982;49.804;24.072;2022-12-31T15:02:52;97627.25;;;11.88;62.75
35878;BME280;21982;49.804;24.072;2022-12-31T15:05:21;97606.75;;;11.82;62.50
35878;BME280;21982;49.804;24.072;2022-12-31T15:10:34;97642.88;;;11.97;62.40
35878;BME280;21982;49.804;24.072;2022-12-31T15:13:12;97633.56;;;11.87;62.91
35878;BME280;21982;49.804;24.072;2022-12-31T15:15:54;97502.97;;;11.13;62.67
35878;BME280;21982;49.804;24.072;2022-12-31T15:21:21;97599.69;;;11.53;62.90
35878;BME280;21982;49.804;24.072;2022-12-31T15:23:52;97606.72;;;11.46;63.58
35878;BME280;21982;49.804;24.072;2022-12-31T15:26:23;97587.84;;;11.19;63.86
35878;BME280;21982;49.804;24.072;2022-12-31T15:29:01;97599.38;;;11.26;64.05
35878;BME280;21982;49.804;24.072;2022-12-31T15:31:28;97598.72;;;11.09;64.46
35878;BME280;21982;49.804;24.072;2022-12-31T15:34:03;97589.44;;;10.99;64.37
35878;BME280;21982;49.804;24.072;2022-12-31T15:36:31;97511.00;;;10.39;65.03
35878;BME280;21982;49.804;24.072;2022-12-31T15:39:06;97642.53;;;11.05;65.02
35878;BME280;21982;49.804;24.072;2022-12-31T15:41:42;97605.88;;;10.80;65.20
35878;BME280;21982;49.804;24.072;2022-12-31T15:47:03;97613.16;;;10.78;65.87
35878;BME280;21982;49.804;24.072;2022-12-31T15:49:40;97599.56;;;10.66;65.54
35878;BME280;21982;49.804;24.072;2022-12-31T15:52:35;97641.31;;;10.79;65.97
35878;BME280;21982;49.804;24.072;2022-12-31T15:54:58;97586.94;;;10.38;66.38
35878;BME280;21982;49.804;24.072;2022-12-31T15:57:38;97562.44;;;10.22;66.33
35878;BME280;21982;49.804;24.072;2022-12-31T16:00:21;97643.78;;;10.65;66.32
35878;BME280;21982;49.804;24.072;2022-12-31T16:02:50;97602.00;;;10.38;66.69
35878;BME280;21982;49.804;24.072;2022-12-31T16:05:24;97572.03;;;10.23;66.41
35878;BME280;21982;49.804;24.072;2022-12-31T16:07:55;97655.78;;;10.53;66.78
35878;BME280;21982;49.804;24.072;2022-12-31T16:10:27;97548.38;;;9.98;66.82
35878;BME280;21982;49.804;24.072;2022-12-31T16:12:55;97649.84;;;10.51;66.85
35878;BME280;21982;49.804;24.072;2022-12-31T16:20:29;97628.91;;;10.19;67.72
35878;BME280;21982;49.804;24.072;2022-12-31T16:22:57;97600.22;;;10.07;67.53
35878;BME280;21982;49.804;24.072;2022-12-31T16:25:24;97656.13;;;10.35;67.79
35878;BME280;21982;49.804;24.072;2022-12-31T16:27:50;97650.34;;;10.32;67.77
35878;BME280;21982;49.804;24.072;2022-12-31T16:30:20;97630.00;;;10.32;67.54
35878;BME280;21982;49.804;24.072;2022-12-31T16:32:48;97631.72;;;10.25;68.05
35878;BME280;21982;49.804;24.072;2022-12-31T16:35:29;97620.50;;;10.15;67.84
35878;BME280;21982;49.804;24.072;2022-12-31T16:38:14;97656.88;;;10.21;68.24
35878;BME280;21982;49.804;24.072;2022-12-31T16:40:42;97652.72;;;10.19;68.51
35878;BME280;21982;49.804;24.072;2022-12-31T16:43:34;97636.00;;;10.03;68.42
35878;BME280;21982;49.804;24.072;2022-12-31T16:46:19;97656.06;;;10.13;68.29
35878;BME280;21982;49.804;24.072;2022-12-31T16:48:58;97541.56;;;9.35;68.43
35878;BME280;21982;49.804;24.072;2022-12-31T16:51:31;97657.06;;;10.12;69.34
35878;BME280;21982;49.804;24.072;2022-12-31T16:54:00;97666.38;;;10.07;68.91
35878;BME280;21982;49.804;24.072;2022-12-31T16:56:33;97658.25;;;10.09;69.04
35878;BME280;21982;49.804;24.072;2022-12-31T16:59:06;97659.38;;;10.15;69.39
35878;BME280;21982;49.804;24.072;2022-12-31T17:01:37;97667.63;;;10.20;69.46
35878;BME280;21982;49.804;24.072;2022-12-31T17:04:07;97586.56;;;9.73;69.22
35878;BME280;21982;49.804;24.072;2022-12-31T17:06:34;97634.34;;;10.02;69.23
35878;BME280;21982;49.804;24.072;2022-12-31T17:09:09;97688.53;;;10.37;68.79
35878;BME280;21982;49.804;24.072;2022-12-31T17:11:55;97676.47;;;10.35;68.95
35878;BME280;21982;49.804;24.072;2022-12-31T17:14:23;97656.38;;;10.18;68.88
35878;BME280;21982;49.804;24.072;2022-12-31T17:16:53;97676.81;;;10.32;69.21
35878;BME280;21982;49.804;24.072;2022-12-31T17:19:32;97682.13;;;10.32;69.09
35878;BME280;21982;49.804;24.072;2022-12-31T17:21:58;97666.94;;;10.26;69.40
35878;BME280;21982;49.804;24.072;2022-12-31T17:24:24;97570.97;;;9.63;69.36
35878;BME280;21982;49.804;24.072;2022-12-31T17:26:50;97646.16;;;10.15;69.71
35878;BME280;21982;49.804;24.072;2022-12-31T17:29:21;97655.53;;;10.25;69.49
35878;BME280;21982;49.804;24.072;2022-12-31T17:32:04;97549.38;;;9.52;69.41
35878;BME280;21982;49.804;24.072;2022-12-31T17:34:36;97667.28;;;10.23;69.49
35878;BME280;21982;49.804;24.072;2022-12-31T17:39:44;97597.63;;;9.77;69.79
35878;BME280;21982;49.804;24.072;2022-12-31T17:42:11;97663.00;;;10.14;70.29
35878;BME280;21982;49.804;24.072;2022-12-31T17:44:40;97666.31;;;10.16;70.27
35878;BME280;21982;49.804;24.072;2022-12-31T17:47:07;97653.97;;;10.08;69.97
35878;BME280;21982;49.804;24.072;2022-12-31T17:49:35;97685.53;;;10.09;70.38
35878;BME280;21982;49.804;24.072;2022-12-31T17:52:01;97663.44;;;10.02;70.20
35878;BME280;21982;49.804;24.072;2022-12-31T17:54:26;97664.53;;;10.08;70.60
35878;BME280;21982;49.804;24.072;2022-12-31T17:56:52;97624.91;;;9.77;70.46
35878;BME280;21982;49.804;24.072;2022-12-31T17:59:23;97641.38;;;9.87;69.94